M I D A S
Marine Information and Data Acquisition System
Tripno 581 of the Zeeleeuw from 2003-09-02 06:28:39 to 2003-09-02 14:26:07
Back to CruiseResearch ActivitiesStationsMapUnderway DataData graphs

EquipmentUnitsComment
TimeDGPSUTC
LatitudeDGPSDM.mWGS84
LongitudeDGPSDM.mWGS84
HeadingGyrodeg 
SOGDGPSknotsSpeed over ground
COGDGPSdegCourse over ground
DepthEcho soundermeters200 kHz
Missing or incorrect values are displayed as -999
Navigation data collected by the RV Zeeleeuw from 2003-09-02 06:28:39 to 2003-09-02 14:26:07
                                                                                    Next 1000 lines
Time Latitude Longitude Heading SOG COG Depth
2003-09-02 06:28:47 51°13.83 2°55.64 336.8 6.4 332 12.4
2003-09-02 06:28:51 51°13.83 2°55.63 337.3 6.5 333 12.5
2003-09-02 06:28:57 51°13.84 2°55.62 338 6.7 334 12
2003-09-02 06:29:01 51°13.85 2°55.62 338.3 6.7 334 11.8
2003-09-02 06:29:07 51°13.86 2°55.61 338.4 6.8 333 12.4
2003-09-02 06:29:11 51°13.87 2°55.6 339.2 6.9 334 12.2
2003-09-02 06:29:17 51°13.88 2°55.6 339.9 7 334 12.2
2003-09-02 06:29:21 51°13.88 2°55.59 340.1 7.1 335 12
2003-09-02 06:29:27 51°13.89 2°55.58 340.1 7.3 334 12.4
2003-09-02 06:29:33 51°13.9 2°55.57 340.1 5.8 335 12.4
2003-09-02 06:29:37 51°13.91 2°55.57 340.6 7.2 336 12.5
2003-09-02 06:29:41 51°13.92 2°55.56 341 7.6 336 12.4
2003-09-02 06:29:47 51°13.93 2°55.56 341.1 7.6 336 12.4
2003-09-02 06:29:51 51°13.94 2°55.55 340.7 7.7 336 12.6
2003-09-02 06:29:57 51°13.95 2°55.54 340.5 7.8 336 12.5
2003-09-02 06:30:01 51°13.96 2°55.54 340.9 7.8 336 12.3
2003-09-02 06:30:07 51°13.97 2°55.53 341.5 7.9 337 12.3
2003-09-02 06:30:11 51°13.98 2°55.52 341.6 7.9 337 12.3
2003-09-02 06:30:17 51°13.99 2°55.51 341.4 7.9 336 12.1
2003-09-02 06:30:21 51°14 2°55.51 341.4 8 336 12.1
2003-09-02 06:30:27 51°14.01 2°55.5 341.6 8 337 12
2003-09-02 06:30:31 51°14.02 2°55.49 341.8 8 337 12
2003-09-02 06:30:37 51°14.03 2°55.49 341.8 7.9 335 12.1
2003-09-02 06:30:41 51°14.04 2°55.48 341.7 8 337 12.2
2003-09-02 06:30:47 51°14.05 2°55.47 341.6 8 337 12.1
2003-09-02 06:30:51 51°14.06 2°55.47 341.6 8 337 11.9
2003-09-02 06:30:57 51°14.07 2°55.46 341.7 8 336 12
2003-09-02 06:31:01 51°14.08 2°55.45 341.5 8 336 11.9
2003-09-02 06:31:07 51°14.09 2°55.44 341.2 8 336 12
2003-09-02 06:31:11 51°14.1 2°55.44 340.4 8 334 12
2003-09-02 06:31:17 51°14.11 2°55.43 339.6 8 334 12
2003-09-02 06:31:21 51°14.12 2°55.42 338.9 8 333 12
2003-09-02 06:31:27 51°14.13 2°55.41 338 8.1 333 12.1
2003-09-02 06:31:31 51°14.14 2°55.4 337.1 8 331 12.4
2003-09-02 06:31:37 51°14.15 2°55.39 336.2 8.1 331 12.3
2003-09-02 06:31:41 51°14.16 2°55.39 335.3 8.1 330 12.2
2003-09-02 06:31:47 51°14.17 2°55.38 334.2 8.1 329 12.2
2003-09-02 06:31:51 51°14.18 2°55.37 333 8 328 12.4
2003-09-02 06:31:57 51°14.19 2°55.36 331.1 8 325 12.3
2003-09-02 06:32:01 51°14.2 2°55.35 328.9 8.1 323 12.2
2003-09-02 06:32:07 51°14.21 2°55.33 326.6 8.5 321 12.2
2003-09-02 06:32:11 51°14.22 2°55.32 324.9 8.8 319 12.3
2003-09-02 06:32:17 51°14.23 2°55.31 323.9 9.2 319 12.1
2003-09-02 06:32:21 51°14.23 2°55.29 323.5 9.4 318 12.3
2003-09-02 06:32:27 51°14.25 2°55.28 323.1 9.6 317 12.5
2003-09-02 06:32:31 51°14.25 2°55.27 321.8 9.7 316 12.7
2003-09-02 06:32:37 51°14.26 2°55.25 320 10 314 12.7
2003-09-02 06:32:41 51°14.27 2°55.23 318.2 10.1 312 12.6
2003-09-02 06:32:47 51°14.28 2°55.21 316.8 10.3 310 12.7
2003-09-02 06:32:51 51°14.29 2°55.2 315.8 10.5 310 12.4
2003-09-02 06:32:57 51°14.3 2°55.18 315.4 10.4 309 12.6
2003-09-02 06:33:01 51°14.31 2°55.16 315 10.5 309 12.5
2003-09-02 06:33:07 51°14.32 2°55.14 315 10.6 309 12.4
2003-09-02 06:33:11 51°14.33 2°55.13 315 10.6 309 11.8
2003-09-02 06:33:17 51°14.34 2°55.1 315.3 10.7 309 11.6
2003-09-02 06:33:21 51°14.35 2°55.09 315.4 10.8 309 12.6
2003-09-02 06:33:27 51°14.36 2°55.07 315.6 10.9 310 12
2003-09-02 06:33:31 51°14.36 2°55.05 316.1 10.9 310 12.5
2003-09-02 06:33:37 51°14.38 2°55.03 316.4 10.9 311 12
2003-09-02 06:33:41 51°14.39 2°55.02 318.3 10.8 312 11.7
2003-09-02 06:33:47 51°14.4 2°55 321.8 11 317 11.8
2003-09-02 06:33:51 51°14.41 2°54.98 325.3 11.1 320 12.4
2003-09-02 06:33:57 51°14.42 2°54.97 328.7 11.3 323 11.8
2003-09-02 06:34:01 51°14.43 2°54.95 331.1 11.3 325 11.5
2003-09-02 06:34:07 51°14.45 2°54.94 333.3 11.6 328 11.7
2003-09-02 06:34:11 51°14.46 2°54.93 335.5 11.7 330 11.2
2003-09-02 06:34:17 51°14.48 2°54.91 337.4 11.8 333 10.9
2003-09-02 06:34:21 51°14.49 2°54.91 339.9 11.6 335 10.9
2003-09-02 06:34:27 51°14.51 2°54.89 341.9 11.6 336 11.4
2003-09-02 06:34:31 51°14.52 2°54.88 342.2 11.8 336 11
2003-09-02 06:34:37 51°14.54 2°54.87 341.8 11.9 336 11.5
2003-09-02 06:34:41 51°14.55 2°54.86 341.6 11.9 336 11.2
2003-09-02 06:34:47 51°14.57 2°54.85 341.8 12 337 11.1
2003-09-02 06:34:51 51°14.58 2°54.84 342.3 12 339 10.9
2003-09-02 06:34:57 51°14.6 2°54.83 343.9 12 341 11
2003-09-02 06:35:01 51°14.61 2°54.83 345.4 12 343 11
2003-09-02 06:35:07 51°14.63 2°54.82 346.6 12 344 11
2003-09-02 06:35:11 51°14.65 2°54.81 347.8 12.2 345 10.6
2003-09-02 06:35:17 51°14.67 2°54.81 348.9 12.2 347 10.9
2003-09-02 06:35:21 51°14.68 2°54.8 349.7 12.1 347 11
2003-09-02 06:35:27 51°14.7 2°54.79 349.9 12.2 347 11
2003-09-02 06:35:31 51°14.71 2°54.79 349.9 12.2 347 11
2003-09-02 06:35:37 51°14.73 2°54.78 349.7 12.4 346 10.7
2003-09-02 06:35:41 51°14.74 2°54.78 349.3 12.3 346 10.5
2003-09-02 06:35:47 51°14.76 2°54.77 348.7 12.5 344 10.6
2003-09-02 06:35:51 51°14.78 2°54.76 348.1 12.6 344 10.1
2003-09-02 06:35:57 51°14.8 2°54.75 347.7 12.7 344 10.5
2003-09-02 06:36:01 51°14.81 2°54.75 347.6 12.6 344 10.5
2003-09-02 06:36:07 51°14.83 2°54.74 348.3 12.6 346 10.6
2003-09-02 06:36:11 51°14.85 2°54.73 350.1 12.7 347 10.3
2003-09-02 06:36:17 51°14.87 2°54.73 351.8 12.7 349 10.3
2003-09-02 06:36:21 51°14.88 2°54.72 353.3 12.8 350 10.2
2003-09-02 06:36:27 51°14.9 2°54.72 354.1 12.9 350 10.6
2003-09-02 06:36:31 51°14.92 2°54.71 354.7 12.9 351 10.5
2003-09-02 06:36:37 51°14.94 2°54.71 355 13 351 10.2
2003-09-02 06:36:41 51°14.95 2°54.7 355.1 13 352 10.2
2003-09-02 06:36:47 51°14.97 2°54.7 357.1 13.1 355 9.6
2003-09-02 06:36:51 51°14.99 2°54.7 0.7 13.2 358 10.2
2003-09-02 06:36:57 51°15.01 2°54.7 5 13.1 3 9.5
2003-09-02 06:37:01 51°15.02 2°54.7 8.8 13 7 9.7
2003-09-02 06:37:07 51°15.05 2°54.71 12 13.1 9 9.6
2003-09-02 06:37:11 51°15.06 2°54.71 13.8 13.2 10 9.4
2003-09-02 06:37:17 51°15.08 2°54.72 15.1 13.1 11 9.7
2003-09-02 06:37:21 51°15.1 2°54.73 16.4 13 12 9.8
2003-09-02 06:37:27 51°15.12 2°54.73 17 13.2 13 9.9
2003-09-02 06:37:31 51°15.13 2°54.74 17.3 13.1 13 9.5
2003-09-02 06:37:37 51°15.15 2°54.75 19.5 13.2 16 9.5
2003-09-02 06:37:41 51°15.17 2°54.76 22.9 13.2 20 9.5
2003-09-02 06:37:47 51°15.19 2°54.77 26.1 13.2 24 9.5
2003-09-02 06:37:51 51°15.2 2°54.78 31 13 27 9.6
2003-09-02 06:37:57 51°15.22 2°54.8 34.2 13 31 9.3
2003-09-02 06:38:01 51°15.23 2°54.81 37.6 13.1 34 9.3
2003-09-02 06:38:07 51°15.25 2°54.83 39 13.2 34 9.7
2003-09-02 06:38:11 51°15.26 2°54.84 40.3 13.1 36 9.8
2003-09-02 06:38:17 51°15.28 2°54.86 41.3 13 36 9.1
2003-09-02 06:38:21 51°15.29 2°54.88 41.3 13.1 36 9
2003-09-02 06:38:27 51°15.31 2°54.9 41.1 13.1 35 9.9
2003-09-02 06:38:31 51°15.32 2°54.91 41.2 13.1 37 9.8
2003-09-02 06:38:37 51°15.34 2°54.93 41 13.1 37 9.5
2003-09-02 06:38:41 51°15.35 2°54.95 40.6 13 34 9.4
2003-09-02 06:38:47 51°15.37 2°54.97 40.2 13.1 34 9.8
2003-09-02 06:38:51 51°15.38 2°54.98 39.9 13.3 35 9.9
2003-09-02 06:38:57 51°15.4 2°55 41.5 13.3 37 9.9
2003-09-02 06:39:01 51°15.41 2°55.01 42.2 13.2 37 9.8
2003-09-02 06:39:07 51°15.42 2°55.03 43.1 13.1 38 10
2003-09-02 06:39:11 51°15.44 2°55.05 43.5 13.1 39 10.1
2003-09-02 06:39:17 51°15.45 2°55.07 44.2 13.2 41 9.6
2003-09-02 06:39:21 51°15.46 2°55.09 46.2 13.2 41 9.4
2003-09-02 06:39:27 51°15.48 2°55.11 48.2 13.1 44 9.5
2003-09-02 06:39:31 51°15.49 2°55.13 50 13.1 45 9.7
2003-09-02 06:39:37 51°15.5 2°55.15 51.9 13.1 47 10.1
2003-09-02 06:39:41 51°15.51 2°55.17 52.9 13.2 48 9.8
2003-09-02 06:39:47 51°15.53 2°55.2 53.7 13.1 49 9.6
2003-09-02 06:39:51 51°15.54 2°55.22 53.5 13.2 47 9.8
2003-09-02 06:39:57 51°15.55 2°55.24 53.7 13.2 48 9.9
2003-09-02 06:40:01 51°15.56 2°55.26 53.7 13.2 49 9.8
2003-09-02 06:40:07 51°15.58 2°55.29 54.2 13.2 50 9.8
2003-09-02 06:40:11 51°15.59 2°55.3 53.6 13.3 47 9.8
2003-09-02 06:40:17 51°15.6 2°55.33 53.4 13.3 47 9.9
2003-09-02 06:40:21 51°15.61 2°55.35 53.1 13.3 49 9.9
2003-09-02 06:40:27 51°15.63 2°55.37 53.3 13.3 48 9.7
2003-09-02 06:40:31 51°15.64 2°55.39 52.7 13.3 47 9.6
2003-09-02 06:40:37 51°15.65 2°55.42 51.9 13.2 47 9.5
2003-09-02 06:40:41 51°15.66 2°55.43 51.7 13.2 46 10
2003-09-02 06:40:47 51°15.68 2°55.46 51.9 13.4 47 10.2
2003-09-02 06:40:51 51°15.69 2°55.48 52.2 13.3 48 10.1
2003-09-02 06:40:57 51°15.7 2°55.5 52.1 13.3 46 9.8
2003-09-02 06:41:01 51°15.71 2°55.52 52.1 13.3 48 10.1
2003-09-02 06:41:07 51°15.73 2°55.55 51.5 13.3 45 10.2
2003-09-02 06:41:11 51°15.74 2°55.56 51.4 13.2 47 9.9
2003-09-02 06:41:17 51°15.75 2°55.59 51.7 13.2 46 9.8
2003-09-02 06:41:21 51°15.76 2°55.6 52.1 13.1 47 9.9
2003-09-02 06:41:27 51°15.78 2°55.63 52.2 13.1 47 10.3
2003-09-02 06:41:31 51°15.79 2°55.65 53.1 13.1 50 9.8
2003-09-02 06:41:37 51°15.8 2°55.67 54.7 13 51 10
2003-09-02 06:41:41 51°15.81 2°55.69 56.1 13.1 51 10.4
2003-09-02 06:41:47 51°15.82 2°55.72 56.5 12.9 52 9.8
2003-09-02 06:41:51 51°15.83 2°55.74 57.7 13 53 10
2003-09-02 06:41:57 51°15.85 2°55.76 56.6 13 51 10
2003-09-02 06:42:01 51°15.85 2°55.78 56.9 13 53 10
2003-09-02 06:42:07 51°15.87 2°55.81 57.2 13 52 10.3
2003-09-02 06:42:11 51°15.88 2°55.83 58.2 13.1 54 9.9
2003-09-02 06:42:17 51°15.89 2°55.86 59 13.1 54 10
2003-09-02 06:42:21 51°15.9 2°55.88 59.8 13.2 55 10.2
2003-09-02 06:42:27 51°15.91 2°55.9 60.2 13.2 56 10.5
2003-09-02 06:42:31 51°15.92 2°55.92 61.2 13.1 57 10.2
2003-09-02 06:42:37 51°15.93 2°55.95 61.3 13.2 55 9.9
2003-09-02 06:42:41 51°15.94 2°55.97 61 13.3 57 10.1
2003-09-02 06:42:47 51°15.95 2°56 60.2 13.4 53 10.1
2003-09-02 06:42:51 51°15.96 2°56.02 60.7 13.4 58 9.9
2003-09-02 06:42:57 51°15.97 2°56.05 60.8 13.3 56 10.1
2003-09-02 06:43:01 51°15.98 2°56.07 60.3 13.3 55 10.1
2003-09-02 06:43:07 51°15.99 2°56.1 59.6 13.3 56 10.1
2003-09-02 06:43:11 51°16 2°56.12 59.9 13.3 54 10.1
2003-09-02 06:43:17 51°16.02 2°56.15 60 13.5 55 10.4
2003-09-02 06:43:21 51°16.02 2°56.17 59.5 13.5 54 10.5
2003-09-02 06:43:27 51°16.04 2°56.19 60 13.4 56 10.6
2003-09-02 06:43:31 51°16.05 2°56.21 60.6 13.5 55 10.5
2003-09-02 06:43:37 51°16.06 2°56.24 60.2 13.5 55 10.1
2003-09-02 06:43:41 51°16.07 2°56.26 60.7 13.4 55 10.4
2003-09-02 06:43:47 51°16.08 2°56.29 60.7 13.5 55 10.3
2003-09-02 06:43:51 51°16.09 2°56.31 60.9 13.7 56 10.5
2003-09-02 06:43:57 51°16.1 2°56.34 59.8 13.5 56 10.2
2003-09-02 06:44:01 51°16.11 2°56.36 60.4 13.5 55 10.1
2003-09-02 06:44:07 51°16.12 2°56.39 60.5 13.5 56 10.3
2003-09-02 06:44:11 51°16.13 2°56.41 60.1 13.5 54 10.5
2003-09-02 06:44:17 51°16.14 2°56.44 60.7 13.5 57 10
2003-09-02 06:44:21 51°16.15 2°56.46 61.1 13.5 55 10.5
2003-09-02 06:44:27 51°16.17 2°56.49 60.9 13.5 57 10.4
2003-09-02 06:44:31 51°16.17 2°56.51 61.8 13.5 57 10.8
2003-09-02 06:44:37 51°16.19 2°56.54 62.4 13.8 58 10.5
2003-09-02 06:44:41 51°16.19 2°56.56 61.3 13.6 56 10
2003-09-02 06:44:47 51°16.21 2°56.59 61.5 13.4 56 10.3
2003-09-02 06:44:51 51°16.22 2°56.61 61.3 13.5 56 10.4
2003-09-02 06:44:57 51°16.23 2°56.64 61.6 13.7 57 10.3
2003-09-02 06:45:01 51°16.24 2°56.66 60.9 13.7 55 10.3
2003-09-02 06:45:07 51°16.25 2°56.69 61.1 13.7 56 10.5
2003-09-02 06:45:11 51°16.26 2°56.71 61.9 13.6 58 10.4
2003-09-02 06:45:17 51°16.27 2°56.74 62.3 13.7 56 10.6
2003-09-02 06:45:21 51°16.28 2°56.76 61.4 13.7 56 10.8
2003-09-02 06:45:27 51°16.29 2°56.79 62.2 13.5 57 10.4
2003-09-02 06:45:31 51°16.3 2°56.81 62.3 13.4 56 10.4
2003-09-02 06:45:37 51°16.31 2°56.84 62.4 13.8 56 10.7
2003-09-02 06:45:41 51°16.32 2°56.86 61.6 13.8 56 10.3
2003-09-02 06:45:47 51°16.33 2°56.89 61.6 13.5 57 10.4
2003-09-02 06:45:51 51°16.34 2°56.91 62.4 13.6 58 10.4
2003-09-02 06:45:57 51°16.35 2°56.94 62 13.6 56 10.1
2003-09-02 06:46:01 51°16.36 2°56.96 62 13.5 56 10.3
2003-09-02 06:46:07 51°16.37 2°56.99 60.9 13.5 53 10.4
2003-09-02 06:46:11 51°16.38 2°57.01 61.3 13.5 58 10.3
2003-09-02 06:46:17 51°16.4 2°57.04 61.7 13.7 56 10.3
2003-09-02 06:46:21 51°16.4 2°57.06 61.2 13.8 55 10.3
2003-09-02 06:46:27 51°16.42 2°57.09 60.8 13.6 56 10.3
2003-09-02 06:46:31 51°16.43 2°57.11 60.5 13.6 54 10.6
2003-09-02 06:46:37 51°16.44 2°57.14 61.6 13.7 55 10.6
2003-09-02 06:46:41 51°16.45 2°57.16 61.2 13.7 57 10.9
2003-09-02 06:46:47 51°16.46 2°57.19 60.7 13.5 57 10.3
2003-09-02 06:46:51 51°16.47 2°57.21 61.6 13.5 56 10.5
2003-09-02 06:46:57 51°16.48 2°57.24 60.9 13.7 55 10.6
2003-09-02 06:47:01 51°16.49 2°57.26 60.8 13.7 56 10.5
2003-09-02 06:47:07 51°16.5 2°57.29 60.7 13.5 55 10.6
2003-09-02 06:47:11 51°16.51 2°57.31 61.5 13.5 57 10.8
2003-09-02 06:47:17 51°16.52 2°57.34 61.7 13.6 56 10.6
2003-09-02 06:47:21 51°16.53 2°57.36 61.7 13.6 56 10.7
2003-09-02 06:47:27 51°16.54 2°57.39 62.1 13.7 57 10.8
2003-09-02 06:47:31 51°16.55 2°57.41 62.4 13.7 58 10.6
2003-09-02 06:47:37 51°16.56 2°57.44 63 13.7 60 10.4
2003-09-02 06:47:41 51°16.57 2°57.46 63.5 13.7 57 10.5
2003-09-02 06:47:47 51°16.58 2°57.49 63.5 13.7 59 10.6
2003-09-02 06:47:51 51°16.59 2°57.51 63.6 13.7 58 10.4
2003-09-02 06:47:57 51°16.6 2°57.54 63.1 13.6 59 10.6
2003-09-02 06:48:01 51°16.61 2°57.56 63.1 13.8 58 10.4
2003-09-02 06:48:07 51°16.62 2°57.6 63.1 13.7 59 10.4
2003-09-02 06:48:11 51°16.63 2°57.62 62.4 13.7 57 10.6
2003-09-02 06:48:17 51°16.64 2°57.65 63.1 13.7 58 10.5
2003-09-02 06:48:21 51°16.65 2°57.67 63.6 13.8 59 10.6
2003-09-02 06:48:27 51°16.66 2°57.7 63 14 58 10.6
2003-09-02 06:48:31 51°16.67 2°57.72 62.7 13.9 57 10.1
2003-09-02 06:48:37 51°16.68 2°57.75 62.5 13.6 58 10.4
2003-09-02 06:48:41 51°16.69 2°57.77 63.1 13.7 59 10.5
2003-09-02 06:48:47 51°16.7 2°57.8 63.3 13.7 60 10.4
2003-09-02 06:48:51 51°16.71 2°57.82 63.8 13.8 58 10.6
2003-09-02 06:48:57 51°16.72 2°57.85 63.7 13.8 58 10.7
2003-09-02 06:49:01 51°16.73 2°57.87 63.5 13.7 59 10.7
2003-09-02 06:49:07 51°16.75 2°57.91 63 13.8 57 10.6
2003-09-02 06:49:11 51°16.75 2°57.93 62.6 13.8 58 10.5
2003-09-02 06:49:17 51°16.77 2°57.96 62.3 13.7 56 10.7
2003-09-02 06:49:21 51°16.77 2°57.98 62.2 13.7 58 10.7
2003-09-02 06:49:27 51°16.79 2°58.01 63.2 13.9 59 10.5
2003-09-02 06:49:31 51°16.79 2°58.03 63.6 13.7 58 10.5
2003-09-02 06:49:37 51°16.81 2°58.06 63.9 13.6 61 10.2
2003-09-02 06:49:41 51°16.81 2°58.08 64.4 13.7 58 10.6
2003-09-02 06:49:47 51°16.83 2°58.11 63.9 13.8 59 10.5
2003-09-02 06:49:51 51°16.83 2°58.13 63.2 13.7 58 10.6
2003-09-02 06:49:57 51°16.85 2°58.16 64 13.8 59 10.7
2003-09-02 06:50:01 51°16.85 2°58.18 63.8 13.7 58 10.7
2003-09-02 06:50:07 51°16.87 2°58.21 63.8 13.8 57 10.5
2003-09-02 06:50:11 51°16.87 2°58.23 62.8 13.8 59 10.5
2003-09-02 06:50:17 51°16.89 2°58.26 62.9 13.6 58 10.1
2003-09-02 06:50:21 51°16.89 2°58.28 63.1 13.5 57 10.4
2003-09-02 06:50:27 51°16.9 2°58.31 63.7 13.5 59 10.4
2003-09-02 06:50:31 51°16.91 2°58.33 63.5 13.6 58 10.2
2003-09-02 06:50:37 51°16.92 2°58.37 64.2 13.6 58 10.7
2003-09-02 06:50:41 51°16.93 2°58.39 63.5 13.5 59 10.8
2003-09-02 06:50:47 51°16.94 2°58.42 64 13.5 59 10.5
2003-09-02 06:50:51 51°16.95 2°58.44 64.4 13.5 60 10.4
2003-09-02 06:50:57 51°16.96 2°58.47 64.2 13.5 59 10.2
2003-09-02 06:51:01 51°16.97 2°58.49 63.8 13.4 59 10.8
2003-09-02 06:51:07 51°16.98 2°58.52 63.7 13.4 59 10.6
2003-09-02 06:51:11 51°16.99 2°58.54 64.2 13.5 59 10.6
2003-09-02 06:51:17 51°17 2°58.57 63.2 13.4 58 10.6
2003-09-02 06:51:21 51°17.01 2°58.59 63.8 13.4 59 10.7
2003-09-02 06:51:27 51°17.02 2°58.62 63.1 13.6 58 10.6
2003-09-02 06:51:31 51°17.03 2°58.64 62.7 13.6 58 10.2
2003-09-02 06:51:37 51°17.04 2°58.67 63.1 13.4 58 10.3
2003-09-02 06:51:41 51°17.05 2°58.69 64.1 13.4 59 10.5
2003-09-02 06:51:47 51°17.06 2°58.72 63.5 13.5 57 11
2003-09-02 06:51:51 51°17.07 2°58.74 63.1 13.5 59 10.4
2003-09-02 06:51:57 51°17.08 2°58.77 63.6 13.5 60 9.8
2003-09-02 06:52:01 51°17.09 2°58.79 63.5 13.4 56 10
2003-09-02 06:52:07 51°17.1 2°58.82 63.9 13.5 57 10.1
2003-09-02 06:52:11 51°17.11 2°58.84 62.2 13.5 56 10.4
2003-09-02 06:52:17 51°17.12 2°58.87 63 13.5 57 10.7
2003-09-02 06:52:21 51°17.13 2°58.89 63 13.5 57 10.2
2003-09-02 06:52:27 51°17.14 2°58.92 63.2 13.5 59 9.8
2003-09-02 06:52:31 51°17.15 2°58.94 63.1 13.5 57 9.8
2003-09-02 06:52:37 51°17.16 2°58.97 62.4 13.5 56 10.4
2003-09-02 06:52:41 51°17.17 2°58.99 62.8 13.5 58 10
2003-09-02 06:52:47 51°17.18 2°59.02 62.9 13.5 56 10.5
2003-09-02 06:52:51 51°17.19 2°59.04 63 13.5 59 10.1
2003-09-02 06:52:57 51°17.2 2°59.07 63.2 13.5 57 10.5
2003-09-02 06:53:01 51°17.21 2°59.09 63 13.6 58 10
2003-09-02 06:53:07 51°17.22 2°59.12 62.9 13.6 58 10.1
2003-09-02 06:53:11 51°17.23 2°59.14 62.6 13.6 56 10.5
2003-09-02 06:53:17 51°17.24 2°59.17 63.1 13.5 58 9.7
2003-09-02 06:53:21 51°17.25 2°59.19 64 13.5 58 9.5
2003-09-02 06:53:27 51°17.26 2°59.23 63.7 13.4 59 10.1
2003-09-02 06:53:31 51°17.27 2°59.25 64.3 13.5 59 10.6
2003-09-02 06:53:37 51°17.28 2°59.28 63.8 13.6 57 10.8
2003-09-02 06:53:41 51°17.29 2°59.3 63.9 13.5 60 10.1
2003-09-02 06:53:47 51°17.3 2°59.33 63.9 13.5 58 9.9
2003-09-02 06:53:51 51°17.31 2°59.35 63.5 13.4 58 10.1
2003-09-02 06:53:57 51°17.32 2°59.38 63.7 13.6 58 10.3
2003-09-02 06:54:01 51°17.33 2°59.4 63.6 13.6 58 10.2
2003-09-02 06:54:07 51°17.34 2°59.43 63.5 13.6 56 10.1
2003-09-02 06:54:11 51°17.35 2°59.45 63.3 13.5 59 10.1
2003-09-02 06:54:17 51°17.36 2°59.48 63.1 13.5 57 9.8
2003-09-02 06:54:21 51°17.37 2°59.5 63 13.5 57 10.2
2003-09-02 06:54:27 51°17.38 2°59.53 63.1 13.7 59 10.4
2003-09-02 06:54:31 51°17.39 2°59.55 62.4 13.5 56 9.7
2003-09-02 06:54:37 51°17.4 2°59.58 62.9 13.5 59 10.1
2003-09-02 06:54:41 51°17.41 2°59.6 62.7 13.5 58 9.6
2003-09-02 06:54:47 51°17.42 2°59.63 63.8 13.6 59 9.9
2003-09-02 06:54:51 51°17.43 2°59.65 63.1 13.5 58 10
2003-09-02 06:54:57 51°17.44 2°59.68 63.5 13.5 59 9.9
2003-09-02 06:55:01 51°17.45 2°59.7 63.3 13.6 56 10.4
2003-09-02 06:55:07 51°17.46 2°59.74 63.2 13.7 60 10.6
2003-09-02 06:55:11 51°17.47 2°59.76 63.2 13.7 57 10.2
2003-09-02 06:55:17 51°17.48 2°59.79 63.1 13.6 59 10.5
2003-09-02 06:55:21 51°17.49 2°59.81 63.1 13.6 57 10.2
2003-09-02 06:55:27 51°17.5 2°59.84 62.8 13.7 58 10.3
2003-09-02 06:55:31 51°17.51 2°59.86 63.3 13.7 59 10
2003-09-02 06:55:37 51°17.52 2°59.89 63.4 13.6 58 10.1
2003-09-02 06:55:41 51°17.53 2°59.91 62.8 13.6 57 10.4
2003-09-02 06:55:47 51°17.54 2°59.94 62.4 13.6 58 10
2003-09-02 06:55:51 51°17.55 2°59.96 62.7 13.7 58 9.8
2003-09-02 06:55:57 51°17.56 2°59.99 63.1 13.5 60 10.1
2003-09-02 06:56:01 51°17.57 3°0.01 64.2 13.5 60 10.1
2003-09-02 06:56:07 51°17.58 3°0.04 64.5 13.6 59 10.1
2003-09-02 06:56:11 51°17.59 3°0.06 64.5 13.7 59 9.6
2003-09-02 06:56:17 51°17.6 3°0.09 64.1 13.6 58 9.9
2003-09-02 06:56:21 51°17.61 3°0.11 64 13.6 59 9.7
2003-09-02 06:56:27 51°17.62 3°0.14 63.1 13.6 60 9.9
2003-09-02 06:56:31 51°17.63 3°0.16 63.1 13.6 56 10
2003-09-02 06:56:37 51°17.64 3°0.2 63.6 13.8 60 9.7
2003-09-02 06:56:41 51°17.65 3°0.22 63.4 13.7 57 9.8
2003-09-02 06:56:47 51°17.66 3°0.25 63.6 13.6 58 9.9
2003-09-02 06:56:51 51°17.67 3°0.27 63.6 13.5 58 9.8
2003-09-02 06:56:57 51°17.68 3°0.3 63.4 13.6 59 10
2003-09-02 06:57:01 51°17.69 3°0.32 64.2 13.6 59 9.9
2003-09-02 06:57:07 51°17.7 3°0.35 63.6 13.8 59 9.6
2003-09-02 06:57:11 51°17.71 3°0.37 63.1 13.6 57 9.9
2003-09-02 06:57:17 51°17.72 3°0.4 63.1 13.5 58 10
2003-09-02 06:57:21 51°17.73 3°0.42 63.7 13.6 58 10
2003-09-02 06:57:27 51°17.74 3°0.45 63 13.7 58 10.1
2003-09-02 06:57:31 51°17.75 3°0.47 62.7 13.6 58 9.9
2003-09-02 06:57:37 51°17.76 3°0.5 63.4 13.6 58 9.6
2003-09-02 06:57:41 51°17.77 3°0.52 63.2 13.6 58 9.6
2003-09-02 06:57:47 51°17.78 3°0.55 63.7 13.7 57 9.9
2003-09-02 06:57:51 51°17.79 3°0.57 63 13.5 58 10
2003-09-02 06:57:57 51°17.8 3°0.6 63.4 13.6 56 9.8
2003-09-02 06:58:01 51°17.81 3°0.62 63.2 13.5 59 9.6
2003-09-02 06:58:07 51°17.82 3°0.65 63 13.6 57 9.5
2003-09-02 06:58:11 51°17.83 3°0.67 63.1 13.5 58 9.5
2003-09-02 06:58:17 51°17.84 3°0.7 63.2 13.6 56 9.4
2003-09-02 06:58:21 51°17.85 3°0.73 63.7 13.6 60 9.2
2003-09-02 06:58:27 51°17.86 3°0.75 63.6 13.5 58 9.7
2003-09-02 06:58:31 51°17.87 3°0.78 63.8 13.6 59 9.6
2003-09-02 06:58:37 51°17.88 3°0.81 63.8 13.6 59 9.8
2003-09-02 06:58:41 51°17.89 3°0.83 63.5 13.6 58 9.5
2003-09-02 06:58:47 51°17.9 3°0.86 63.7 13.6 57 9.7
2003-09-02 06:58:51 51°17.91 3°0.88 63.4 13.6 58 10
2003-09-02 06:58:57 51°17.92 3°0.91 63.1 13.6 58 9.5
2003-09-02 06:59:01 51°17.93 3°0.93 63.1 13.6 58 9.6
2003-09-02 06:59:07 51°17.94 3°0.96 64.3 13.7 58 9.3
2003-09-02 06:59:11 51°17.95 3°0.98 63.6 13.6 58 9.5
2003-09-02 06:59:17 51°17.96 3°1.01 63.9 13.5 59 9.7
2003-09-02 06:59:21 51°17.97 3°1.03 63.9 13.5 58 9.8
2003-09-02 06:59:27 51°17.98 3°1.06 64.3 13.6 59 9.7
2003-09-02 06:59:31 51°17.99 3°1.08 64.3 13.6 58 9.4
2003-09-02 06:59:37 51°18 3°1.11 63.9 13.6 58 9.3
2003-09-02 06:59:41 51°18.01 3°1.13 63.9 13.7 58 10.2
2003-09-02 06:59:47 51°18.02 3°1.16 63.9 13.7 57 8.9
2003-09-02 06:59:51 51°18.03 3°1.18 63.1 13.5 59 9.1
2003-09-02 06:59:57 51°18.04 3°1.21 63.6 13.4 57 9.3
2003-09-02 07:00:01 51°18.05 3°1.23 63.8 13.5 58 9.6
2003-09-02 07:00:07 51°18.06 3°1.26 63.5 13.6 57 9.8
2003-09-02 07:00:11 51°18.07 3°1.28 62.8 13.6 58 9.4
2003-09-02 07:00:17 51°18.08 3°1.31 63.1 13.6 57 10
2003-09-02 07:00:21 51°18.09 3°1.33 62.6 13.6 58 9.7
2003-09-02 07:00:27 51°18.1 3°1.36 62.9 13.5 59 9.3
2003-09-02 07:00:31 51°18.11 3°1.38 63.9 13.5 58 9.6
2003-09-02 07:00:37 51°18.12 3°1.41 64.1 13.5 58 9.3
2003-09-02 07:00:41 51°18.13 3°1.43 63.8 13.4 58 9.6
2003-09-02 07:00:47 51°18.14 3°1.47 64.2 13.6 58 9.2
2003-09-02 07:00:51 51°18.15 3°1.49 63 13.6 56 9
2003-09-02 07:00:57 51°18.16 3°1.52 63 13.5 57 9.4
2003-09-02 07:01:01 51°18.17 3°1.54 62.4 13.5 56 9.8
2003-09-02 07:01:07 51°18.18 3°1.57 62.6 13.5 58 9.2
2003-09-02 07:01:11 51°18.19 3°1.59 63.8 13.6 58 9.2
2003-09-02 07:01:17 51°18.2 3°1.62 63.8 13.6 58 9.8
2003-09-02 07:01:21 51°18.21 3°1.64 63.6 13.5 59 9.5
2003-09-02 07:01:27 51°18.22 3°1.67 63.9 13.6 59 9.5
2003-09-02 07:01:31 51°18.23 3°1.69 64 13.5 58 9.3
2003-09-02 07:01:37 51°18.24 3°1.72 64.6 13.4 59 9.1
2003-09-02 07:01:41 51°18.25 3°1.74 63.7 13.4 57 9.2
2003-09-02 07:01:47 51°18.26 3°1.77 64.8 13.5 58 9.2
2003-09-02 07:01:51 51°18.27 3°1.79 63.6 13.5 57 9.4
2003-09-02 07:01:57 51°18.28 3°1.82 63.7 13.5 58 9.8
2003-09-02 07:02:01 51°18.29 3°1.84 63.6 13.5 58 9.4
2003-09-02 07:02:07 51°18.3 3°1.87 63.3 13.6 57 9.5
2003-09-02 07:02:11 51°18.31 3°1.89 63.4 13.6 58 9.4
2003-09-02 07:02:17 51°18.32 3°1.92 62.3 13.5 55 9.4
2003-09-02 07:02:21 51°18.33 3°1.94 62.6 13.5 59 9.5
2003-09-02 07:02:27 51°18.34 3°1.97 62.3 13.6 57 9.5
2003-09-02 07:02:31 51°18.35 3°1.99 62.9 13.5 57 9.5
2003-09-02 07:02:37 51°18.36 3°2.02 62.7 13.6 59 9.4
2003-09-02 07:02:41 51°18.37 3°2.04 63.1 13.7 57 9.1
2003-09-02 07:02:47 51°18.38 3°2.07 63.4 13.5 58 9
2003-09-02 07:02:51 51°18.39 3°2.09 62.9 13.5 57 9
2003-09-02 07:02:57 51°18.4 3°2.12 63.1 13.5 57 8.9
2003-09-02 07:03:01 51°18.41 3°2.14 62.7 13.6 57 8.9
2003-09-02 07:03:07 51°18.42 3°2.17 61.1 13.4 53 9
2003-09-02 07:03:11 51°18.43 3°2.19 59.8 13.5 55 9.1
2003-09-02 07:03:17 51°18.45 3°2.22 58.8 13.5 51 8.4
2003-09-02 07:03:21 51°18.46 3°2.24 57.8 13.4 54 8.7
2003-09-02 07:03:27 51°18.47 3°2.27 58.6 13.4 52 8.8
2003-09-02 07:03:31 51°18.48 3°2.29 58.1 13.6 52 8.8
2003-09-02 07:03:37 51°18.49 3°2.31 57.5 13.4 52 8.8
2003-09-02 07:03:41 51°18.5 3°2.33 57.3 13.4 53 8.5
2003-09-02 07:03:47 51°18.52 3°2.36 57.5 13.5 51 9.1
2003-09-02 07:03:51 51°18.52 3°2.38 57.4 13.4 53 9
2003-09-02 07:03:57 51°18.54 3°2.41 57.5 13.5 54 8.9
2003-09-02 07:04:01 51°18.55 3°2.43 57.5 13.5 52 8.6
2003-09-02 07:04:07 51°18.56 3°2.46 57.9 13.3 52 8.7
2003-09-02 07:04:11 51°18.57 3°2.47 58.1 13.3 52 8.8
2003-09-02 07:04:17 51°18.58 3°2.5 57.7 13.4 53 8.8
2003-09-02 07:04:21 51°18.59 3°2.52 57.6 13.3 51 9.1
2003-09-02 07:04:27 51°18.61 3°2.55 57.2 13.4 51 9
2003-09-02 07:04:31 51°18.62 3°2.57 56.8 13.4 51 8.9
2003-09-02 07:04:37 51°18.63 3°2.59 57 13.3 51 8.9
2003-09-02 07:04:41 51°18.64 3°2.61 57 13.3 52 8.6
2003-09-02 07:04:47 51°18.65 3°2.64 57.8 13.4 51 8.5
2003-09-02 07:04:51 51°18.66 3°2.66 57.8 13.3 53 8.6
2003-09-02 07:04:57 51°18.68 3°2.69 59 13.4 52 8.5
2003-09-02 07:05:01 51°18.68 3°2.71 59 13.3 54 8.6
2003-09-02 07:05:07 51°18.7 3°2.74 59.5 13.4 52 8.6
2003-09-02 07:05:11 51°18.71 3°2.76 59.7 13.4 55 8.5
2003-09-02 07:05:17 51°18.72 3°2.78 59.9 13.3 53 8.6
2003-09-02 07:05:21 51°18.73 3°2.8 59.5 13.2 53 8.8
2003-09-02 07:05:27 51°18.74 3°2.83 58.9 13.4 54 8.5
2003-09-02 07:05:31 51°18.75 3°2.85 59.2 13.4 53 8.1
2003-09-02 07:05:37 51°18.76 3°2.88 58.7 13.4 53 8.1
2003-09-02 07:05:41 51°18.77 3°2.9 58.6 13.4 53 8.2
2003-09-02 07:05:47 51°18.79 3°2.92 58.7 13.4 52 8.2
2003-09-02 07:05:51 51°18.8 3°2.94 58.2 13.4 53 8.4
2003-09-02 07:05:57 51°18.81 3°2.97 58.4 13.4 53 8.2
2003-09-02 07:06:01 51°18.82 3°2.99 58.3 13.4 52 8.4
2003-09-02 07:06:07 51°18.83 3°3.02 57.6 13.5 53 8.2
2003-09-02 07:06:11 51°18.84 3°3.04 57.8 13.5 52 8.6
2003-09-02 07:06:17 51°18.85 3°3.07 57.9 13.4 52 8.3
2003-09-02 07:06:21 51°18.86 3°3.08 57.4 13.3 52 8.6
2003-09-02 07:06:27 51°18.88 3°3.11 58 13.4 52 8.8
2003-09-02 07:06:31 51°18.89 3°3.13 58 13.5 55 8.3
2003-09-02 07:06:37 51°18.9 3°3.16 58.7 13.4 53 8.1
2003-09-02 07:06:41 51°18.91 3°3.18 59.1 13.5 53 8.6
2003-09-02 07:06:47 51°18.92 3°3.21 58.9 13.4 53 8.4
2003-09-02 07:06:51 51°18.93 3°3.23 58.4 13.5 53 8.6
2003-09-02 07:06:57 51°18.94 3°3.26 58.7 13.5 52 8.5
2003-09-02 07:07:01 51°18.95 3°3.27 57.8 13.4 52 8.8
2003-09-02 07:07:07 51°18.97 3°3.3 57.9 13.5 52 8.7
2003-09-02 07:07:11 51°18.98 3°3.32 57.1 13.4 51 8.4
2003-09-02 07:07:17 51°18.99 3°3.35 57.9 13.4 52 8.4
2003-09-02 07:07:21 51°19 3°3.37 57.9 13.3 53 8.5
2003-09-02 07:07:27 51°19.01 3°3.4 58.9 13.4 53 8.3
2003-09-02 07:07:31 51°19.02 3°3.42 59.1 13.4 54 8.5
2003-09-02 07:07:37 51°19.04 3°3.44 59.9 13.3 54 8.7
2003-09-02 07:07:41 51°19.04 3°3.46 60 13.4 55 8.7
2003-09-02 07:07:47 51°19.06 3°3.49 59.2 13.3 52 8.5
2003-09-02 07:07:51 51°19.07 3°3.51 58.8 13.3 53 8.3
2003-09-02 07:07:57 51°19.08 3°3.54 58.2 13.3 51 8.3
2003-09-02 07:08:01 51°19.09 3°3.56 57.3 13.3 52 8.6
2003-09-02 07:08:07 51°19.1 3°3.58 58 13.4 51 8.5
2003-09-02 07:08:11 51°19.11 3°3.6 57.6 13.4 52 8.6
2003-09-02 07:08:17 51°19.13 3°3.63 58 13.4 52 8.5
2003-09-02 07:08:21 51°19.13 3°3.65 58 13.3 52 8.6
2003-09-02 07:08:27 51°19.15 3°3.68 58.9 13.2 53 8.6
2003-09-02 07:08:31 51°19.16 3°3.7 58.8 13.2 53 8.6
2003-09-02 07:08:37 51°19.17 3°3.73 59.1 13.2 52 8.4
2003-09-02 07:08:41 51°19.18 3°3.74 59 13.2 54 8.3
2003-09-02 07:08:47 51°19.19 3°3.77 58.8 13.3 51 8.4
2003-09-02 07:08:51 51°19.2 3°3.79 59 13.3 53 8.5
2003-09-02 07:08:57 51°19.21 3°3.82 58.7 13.4 51 8.8
2003-09-02 07:09:01 51°19.22 3°3.84 57.4 13.3 52 8.3
2003-09-02 07:09:07 51°19.24 3°3.86 57.2 13.2 51 8.6
2003-09-02 07:09:11 51°19.25 3°3.88 57 13.2 51 9
2003-09-02 07:09:17 51°19.26 3°3.91 57.3 13.4 51 8.4
2003-09-02 07:09:21 51°19.27 3°3.93 57.3 13.3 52 8.6
2003-09-02 07:09:27 51°19.28 3°3.96 57.2 13.4 51 8.6
2003-09-02 07:09:31 51°19.29 3°3.98 57.5 13.4 53 8.5
2003-09-02 07:09:37 51°19.31 3°4 56.8 13.2 52 8.6
2003-09-02 07:09:41 51°19.32 3°4.02 57.5 13.2 51 8.3
2003-09-02 07:09:47 51°19.33 3°4.05 57.4 13.1 52 8.5
2003-09-02 07:09:51 51°19.34 3°4.07 58.5 13.2 53 8.6
2003-09-02 07:09:57 51°19.35 3°4.1 58.7 13.3 54 8.5
2003-09-02 07:10:01 51°19.36 3°4.11 59.1 13.2 53 8.6
2003-09-02 07:10:07 51°19.37 3°4.14 58.9 13.3 55 8.8
2003-09-02 07:10:11 51°19.38 3°4.16 58.8 13.3 51 8.3
2003-09-02 07:10:17 51°19.4 3°4.19 58.6 13.1 52 8.7
2003-09-02 07:10:21 51°19.4 3°4.21 58.6 13.2 52 8.6
2003-09-02 07:10:27 51°19.42 3°4.24 58 13.3 51 8.7
2003-09-02 07:10:31 51°19.43 3°4.26 57.7 13.3 53 8.6
2003-09-02 07:10:37 51°19.44 3°4.28 57.2 13.2 52 8.5
2003-09-02 07:10:41 51°19.45 3°4.3 57.4 13.3 52 8.9
2003-09-02 07:10:47 51°19.46 3°4.33 58 13.3 54 8.7
2003-09-02 07:10:51 51°19.47 3°4.35 59 13.4 53 8.6
2003-09-02 07:10:57 51°19.49 3°4.38 58.8 13.4 52 8.7
2003-09-02 07:11:01 51°19.49 3°4.4 59 13.5 55 8.6
2003-09-02 07:11:07 51°19.51 3°4.42 58.7 13.3 52 8.8
2003-09-02 07:11:11 51°19.52 3°4.44 58.7 13.2 54 8.9
2003-09-02 07:11:17 51°19.53 3°4.47 59.1 13.3 55 8.6
2003-09-02 07:11:21 51°19.54 3°4.49 59 13.4 51 8.7
2003-09-02 07:11:27 51°19.55 3°4.52 59.2 13.3 54 8.7
2003-09-02 07:11:31 51°19.56 3°4.54 58.7 13.3 51 9
2003-09-02 07:11:37 51°19.57 3°4.57 58.8 13.3 55 8.6
2003-09-02 07:11:41 51°19.58 3°4.58 59.4 13.2 54 8.2
2003-09-02 07:11:47 51°19.6 3°4.61 59.3 13.2 52 8.4
2003-09-02 07:11:51 51°19.6 3°4.63 59.5 13.3 54 8
2003-09-02 07:11:57 51°19.62 3°4.66 58.8 13.1 52 8.6
2003-09-02 07:12:01 51°19.63 3°4.68 59.2 13.3 53 8.4
2003-09-02 07:12:07 51°19.64 3°4.71 58.6 13.3 53 8.5
2003-09-02 07:12:11 51°19.65 3°4.73 58.6 13.3 52 8.4
2003-09-02 07:12:17 51°19.66 3°4.75 58.8 13.2 53 8.4
2003-09-02 07:12:21 51°19.67 3°4.77 59 13.2 52 8.2
2003-09-02 07:12:27 51°19.68 3°4.8 58.1 13.1 52 8.5
2003-09-02 07:12:31 51°19.69 3°4.82 57.8 13.1 51 8.3
2003-09-02 07:12:37 51°19.71 3°4.85 57.1 13.2 51 8.3
2003-09-02 07:12:41 51°19.72 3°4.86 57.5 13.2 52 8.4
2003-09-02 07:12:47 51°19.73 3°4.89 57.3 13.2 52 8.5
2003-09-02 07:12:51 51°19.74 3°4.91 58 13.2 52 8.6
2003-09-02 07:12:57 51°19.75 3°4.94 58.4 13.1 55 8.5
2003-09-02 07:13:01 51°19.76 3°4.96 59.4 13.2 52 8.4
2003-09-02 07:13:07 51°19.77 3°4.99 58.7 13.1 52 8.6
2003-09-02 07:13:11 51°19.78 3°5 58.4 13.2 52 8.5
2003-09-02 07:13:17 51°19.8 3°5.03 58 13.2 52 8.5
2003-09-02 07:13:21 51°19.8 3°5.05 57.3 13.1 52 8.5
2003-09-02 07:13:27 51°19.82 3°5.08 57.9 13.2 51 8.7
2003-09-02 07:13:31 51°19.83 3°5.1 57.5 13.2 52 8.3
2003-09-02 07:13:37 51°19.84 3°5.12 58.1 13.1 52 8.6
2003-09-02 07:13:41 51°19.85 3°5.14 58.5 13.2 54 8.7
2003-09-02 07:13:47 51°19.86 3°5.17 58.6 13.2 52 8.5
2003-09-02 07:13:51 51°19.87 3°5.19 58.5 13.2 53 8.5
2003-09-02 07:13:57 51°19.88 3°5.22 58 13.1 54 8.7
2003-09-02 07:14:01 51°19.89 3°5.23 58.8 13.1 53 8.4
2003-09-02 07:14:07 51°19.91 3°5.26 58.7 13.1 55 8.6
2003-09-02 07:14:11 51°19.91 3°5.28 58.9 13.2 53 8.5
2003-09-02 07:14:17 51°19.93 3°5.31 58.2 13.2 55 8.2
2003-09-02 07:14:21 51°19.94 3°5.33 58.5 13.1 51 8.5
2003-09-02 07:14:27 51°19.95 3°5.36 58.4 13.2 54 8.3
2003-09-02 07:14:31 51°19.96 3°5.38 58.9 13.3 52 8.4
2003-09-02 07:14:37 51°19.97 3°5.4 58 13.1 53 8.5
2003-09-02 07:14:41 51°19.98 3°5.42 58.5 13.1 52 8.3
2003-09-02 07:14:47 51°19.99 3°5.45 58 13.1 52 8.4
2003-09-02 07:14:51 51°20 3°5.47 58 13.1 52 8.3
2003-09-02 07:14:57 51°20.02 3°5.49 58.3 13.2 52 8.6
2003-09-02 07:15:01 51°20.03 3°5.51 58.4 13.2 53 8.4
2003-09-02 07:15:07 51°20.04 3°5.54 58.8 13.2 55 8.5
2003-09-02 07:15:11 51°20.05 3°5.56 58.8 13.2 52 8.2
2003-09-02 07:15:17 51°20.06 3°5.59 58.8 13.5 53 8.1
2003-09-02 07:15:21 51°20.07 3°5.61 59.2 13.1 53 8.2
2003-09-02 07:15:27 51°20.08 3°5.63 58.4 13.1 53 8.3
2003-09-02 07:15:31 51°20.09 3°5.65 58.6 13.1 52 8.1
2003-09-02 07:15:37 51°20.11 3°5.68 58.5 13.1 51 8
2003-09-02 07:15:41 51°20.11 3°5.7 58 13.1 52 8.3
2003-09-02 07:15:47 51°20.13 3°5.73 57.4 13.1 50 7.9
2003-09-02 07:15:51 51°20.14 3°5.74 56.8 13.1 51 7.9
2003-09-02 07:15:57 51°20.15 3°5.77 57 13.1 51 8.2
2003-09-02 07:16:01 51°20.16 3°5.79 57.2 13.2 51 8.2
2003-09-02 07:16:07 51°20.17 3°5.82 57.4 13.1 52 8
2003-09-02 07:16:11 51°20.18 3°5.83 57.7 13.1 51 8.3
2003-09-02 07:16:17 51°20.2 3°5.86 58 13.1 52 8.3
2003-09-02 07:16:21 51°20.2 3°5.88 58.4 13.1 53 8.3
2003-09-02 07:16:27 51°20.22 3°5.91 59.3 13.1 54 8.8
2003-09-02 07:16:31 51°20.23 3°5.93 59.5 13.2 55 8.3
2003-09-02 07:16:37 51°20.24 3°5.96 59.4 13.2 55 8
2003-09-02 07:16:41 51°20.25 3°5.97 60 13.2 53 8.2
2003-09-02 07:16:47 51°20.26 3°6 59.5 13.2 54 8.2
2003-09-02 07:16:51 51°20.27 3°6.02 58.6 13.2 52 8.3
2003-09-02 07:16:57 51°20.28 3°6.05 58.2 13.1 53 8.1
2003-09-02 07:17:01 51°20.29 3°6.07 57.8 13.2 51 8.4
2003-09-02 07:17:07 51°20.3 3°6.09 57.3 13.3 51 8
2003-09-02 07:17:11 51°20.31 3°6.11 57.5 13.3 54 7.7
2003-09-02 07:17:17 51°20.33 3°6.14 57.4 13.2 53 8
2003-09-02 07:17:21 51°20.34 3°6.16 57.4 13.3 52 8
2003-09-02 07:17:27 51°20.35 3°6.19 57.6 13.3 53 8.3
2003-09-02 07:17:31 51°20.36 3°6.21 58.7 13.3 54 8.2
2003-09-02 07:17:37 51°20.37 3°6.24 58 13.4 54 7.8
2003-09-02 07:17:41 51°20.38 3°6.26 57.7 13.3 51 8.3
2003-09-02 07:17:47 51°20.39 3°6.28 58.7 13.4 54 8.2
2003-09-02 07:17:51 51°20.4 3°6.3 58.3 13.3 53 8.2
2003-09-02 07:17:57 51°20.41 3°6.33 59.4 13.3 52 8.3
2003-09-02 07:18:01 51°20.42 3°6.35 58.5 13.3 54 8.1
2003-09-02 07:18:07 51°20.44 3°6.38 58.4 13.2 52 8
2003-09-02 07:18:11 51°20.45 3°6.4 58.5 13.2 54 8
2003-09-02 07:18:17 51°20.46 3°6.42 58.6 13.3 54 8.2
2003-09-02 07:18:21 51°20.47 3°6.44 58.4 13.3 52 8.3
2003-09-02 07:18:27 51°20.48 3°6.47 58.9 13.3 54 8.2
2003-09-02 07:18:31 51°20.49 3°6.49 58.5 13.3 53 8
2003-09-02 07:18:37 51°20.5 3°6.52 58.7 13.3 52 8.4
2003-09-02 07:18:41 51°20.51 3°6.54 58.5 13.3 54 8.1
2003-09-02 07:18:47 51°20.53 3°6.57 57.8 13.2 52 8.2
2003-09-02 07:18:51 51°20.53 3°6.58 57.8 13.1 52 8
2003-09-02 07:18:57 51°20.55 3°6.61 56.9 13.1 52 8
2003-09-02 07:19:01 51°20.56 3°6.63 57.9 13.1 52 7.8
2003-09-02 07:19:07 51°20.57 3°6.66 58.4 13 54 8
2003-09-02 07:19:11 51°20.58 3°6.68 59.5 13.1 53 7.8
2003-09-02 07:19:17 51°20.59 3°6.7 59.5 13.2 55 8
2003-09-02 07:19:21 51°20.6 3°6.72 59.4 13.2 53 7.7
2003-09-02 07:19:27 51°20.61 3°6.75 59.2 13.1 52 8.1
2003-09-02 07:19:31 51°20.62 3°6.77 58.7 12.9 53 8.2
2003-09-02 07:19:37 51°20.64 3°6.8 58.8 13 54 7.9
2003-09-02 07:19:41 51°20.64 3°6.81 59.5 13.1 53 7.6
2003-09-02 07:19:47 51°20.66 3°6.84 58.9 13.1 53 8.2
2003-09-02 07:19:51 51°20.67 3°6.86 59.7 13.1 55 8.1
2003-09-02 07:19:57 51°20.68 3°6.89 59.7 13.1 52 8.1
2003-09-02 07:20:01 51°20.69 3°6.91 59.5 13 55 8.2
2003-09-02 07:20:07 51°20.7 3°6.94 59.9 13 55 8.2
2003-09-02 07:20:11 51°20.71 3°6.95 60.5 13 55 8
2003-09-02 07:20:17 51°20.72 3°6.98 60.9 13 53 7.9
2003-09-02 07:20:21 51°20.73 3°7 60.9 13.1 55 7.8
2003-09-02 07:20:27 51°20.74 3°7.03 60.9 13.1 52 7.9
2003-09-02 07:20:31 51°20.75 3°7.05 60 13 54 8.1
2003-09-02 07:20:37 51°20.76 3°7.08 59.7 13 54 8.1
2003-09-02 07:20:41 51°20.77 3°7.09 58.7 13 51 8
2003-09-02 07:20:47 51°20.79 3°7.12 57.8 13.1 51 8.3
2003-09-02 07:20:51 51°20.8 3°7.14 57 13.1 50 8
2003-09-02 07:20:57 51°20.81 3°7.17 56.8 13.1 50 8.3
2003-09-02 07:21:01 51°20.82 3°7.18 56.8 13.1 51 8.2
2003-09-02 07:21:07 51°20.83 3°7.21 56.6 13.1 50 8.4
2003-09-02 07:21:11 51°20.84 3°7.23 57 13.1 52 8.3
2003-09-02 07:21:17 51°20.85 3°7.26 57.8 13 52 8.6
2003-09-02 07:21:21 51°20.86 3°7.27 58.9 13 55 8.1
2003-09-02 07:21:27 51°20.88 3°7.3 59.5 13 55 8.3
2003-09-02 07:21:31 51°20.89 3°7.32 59.5 13.1 53 8
2003-09-02 07:21:37 51°20.9 3°7.35 59.2 13.1 53 8.4
2003-09-02 07:21:41 51°20.91 3°7.37 58.9 13.2 53 8
2003-09-02 07:21:47 51°20.92 3°7.39 58.7 13.2 52 8.2
2003-09-02 07:21:51 51°20.93 3°7.41 57.5 13.1 51 8.2
2003-09-02 07:21:57 51°20.94 3°7.44 57.1 13.2 51 7.9
2003-09-02 07:22:01 51°20.95 3°7.46 56.8 13.2 52 8.1
2003-09-02 07:22:07 51°20.97 3°7.49 57.4 13.2 51 8.1
2003-09-02 07:22:11 51°20.97 3°7.51 57.5 13.3 54 8.5
2003-09-02 07:22:17 51°20.99 3°7.53 58.2 13.3 54 8.2
2003-09-02 07:22:21 51°21 3°7.55 59.7 13.2 57 8.6
2003-09-02 07:22:27 51°21.01 3°7.58 62.7 13.2 59 8.5
2003-09-02 07:22:31 51°21.01 3°7.6 63.1 13.3 58 8.3
2003-09-02 07:22:37 51°21.02 3°7.63 64.6 13.2 60 8.5
2003-09-02 07:22:41 51°21.03 3°7.66 65.2 13.2 61 8.3
2003-09-02 07:22:47 51°21.04 3°7.69 65.6 13.2 61 8.4
2003-09-02 07:22:51 51°21.05 3°7.71 66.2 13.2 61 8.4
2003-09-02 07:22:57 51°21.06 3°7.74 65.1 13.2 61 8.8
2003-09-02 07:23:01 51°21.07 3°7.76 65.3 13.2 59 8.7
2003-09-02 07:23:07 51°21.08 3°7.79 64.5 13.3 62 8.2
2003-09-02 07:23:11 51°21.09 3°7.81 64.8 13.2 59 8.5
2003-09-02 07:23:17 51°21.1 3°7.84 65.1 13.2 61 8.1
2003-09-02 07:23:21 51°21.1 3°7.86 65.6 13.1 61 8.5
2003-09-02 07:23:27 51°21.11 3°7.89 66.7 13.1 62 8.4
2003-09-02 07:23:31 51°21.12 3°7.91 67.1 13.1 62 8.5
2003-09-02 07:23:37 51°21.13 3°7.94 67.6 13.1 65 8.6
2003-09-02 07:23:41 51°21.14 3°7.96 68.2 13.1 62 8.5
2003-09-02 07:23:47 51°21.15 3°7.99 68.9 13.1 64 8.8
2003-09-02 07:23:51 51°21.15 3°8.01 68.5 13.1 64 8.5
2003-09-02 07:23:57 51°21.16 3°8.04 68.9 13.1 61 8.7
2003-09-02 07:24:01 51°21.17 3°8.06 67.6 13 64 8.7
2003-09-02 07:24:07 51°21.18 3°8.1 66.8 13 62 8.5
2003-09-02 07:24:11 51°21.19 3°8.12 67 12.9 62 8.8
2003-09-02 07:24:17 51°21.2 3°8.15 66.8 13.1 62 8.6
2003-09-02 07:24:21 51°21.2 3°8.17 66.7 13 62 8.9
2003-09-02 07:24:27 51°21.21 3°8.2 66.7 12.9 61 9
2003-09-02 07:24:31 51°21.22 3°8.22 67.3 13 63 9.1
2003-09-02 07:24:37 51°21.23 3°8.25 66.2 13 61 8.6
2003-09-02 07:24:41 51°21.24 3°8.27 66.9 12.9 63 8.9
2003-09-02 07:24:47 51°21.25 3°8.3 68 13 62 8.9
2003-09-02 07:24:51 51°21.25 3°8.32 66.8 13 61 9.3
2003-09-02 07:24:57 51°21.26 3°8.35 67.3 13 63 9
2003-09-02 07:25:01 51°21.27 3°8.37 67.4 13 62 8.7
2003-09-02 07:25:07 51°21.28 3°8.4 67.9 13 61 9.2
2003-09-02 07:25:11 51°21.29 3°8.42 67.1 13 62 9.2
2003-09-02 07:25:17 51°21.3 3°8.45 67 13 60 9
2003-09-02 07:25:21 51°21.31 3°8.47 66.6 12.9 62 8.7
2003-09-02 07:25:27 51°21.32 3°8.5 66.6 12.8 62 9
2003-09-02 07:25:31 51°21.32 3°8.52 66.6 12.9 62 9.2
2003-09-02 07:25:37 51°21.33 3°8.55 67 12.9 60 9.2
2003-09-02 07:25:41 51°21.34 3°8.57 66.4 12.8 63 9.3
2003-09-02 07:25:47 51°21.35 3°8.6 66.9 12.9 62 9.4
2003-09-02 07:25:51 51°21.36 3°8.62 67.2 12.9 62 9.6
2003-09-02 07:25:57 51°21.37 3°8.65 67.1 13 63 9.3
2003-09-02 07:26:01 51°21.37 3°8.67 67.1 13 62 9.6
2003-09-02 07:26:07 51°21.38 3°8.7 67.5 12.9 63 9.4
2003-09-02 07:26:11 51°21.39 3°8.72 67.9 13 63 9.6
2003-09-02 07:26:17 51°21.4 3°8.75 68.1 12.9 62 9.5
2003-09-02 07:26:21 51°21.41 3°8.77 67.8 12.9 63 9.8
2003-09-02 07:26:27 51°21.42 3°8.8 67.9 13.1 61 10
2003-09-02 07:26:31 51°21.42 3°8.82 66.7 12.9 62 10
2003-09-02 07:26:37 51°21.43 3°8.85 66.7 12.8 61 10.1
2003-09-02 07:26:41 51°21.44 3°8.87 66.7 12.8 61 10.1
2003-09-02 07:26:47 51°21.45 3°8.9 65.9 12.9 61 9.9
2003-09-02 07:26:51 51°21.46 3°8.92 66 12.8 60 10.1
2003-09-02 07:26:57 51°21.47 3°8.95 66 12.9 59 10.2
2003-09-02 07:27:01 51°21.48 3°8.97 66 12.9 61 10.2
2003-09-02 07:27:07 51°21.49 3°9 66.3 12.9 61 10.6
2003-09-02 07:27:11 51°21.49 3°9.02 66.4 12.9 62 10.1
2003-09-02 07:27:17 51°21.5 3°9.05 66.7 12.9 61 10.2
2003-09-02 07:27:21 51°21.51 3°9.07 66.6 12.8 61 10.9
2003-09-02 07:27:27 51°21.52 3°9.1 67 12.9 61 10.8
2003-09-02 07:27:31 51°21.53 3°9.12 66 12.8 61 11.2
2003-09-02 07:27:37 51°21.54 3°9.16 66.7 13 63 10.8
2003-09-02 07:27:41 51°21.55 3°9.17 65.7 12.9 59 11
2003-09-02 07:27:47 51°21.56 3°9.2 66.7 12.9 62 11.2
2003-09-02 07:27:51 51°21.56 3°9.22 66.6 13 61 11
2003-09-02 07:27:57 51°21.57 3°9.25 66.8 12.8 61 11
2003-09-02 07:28:01 51°21.58 3°9.27 67.3 12.8 62 11.3
2003-09-02 07:28:07 51°21.59 3°9.31 67.5 12.9 62 11.5
2003-09-02 07:28:11 51°21.6 3°9.33 67.6 12.9 64 11.9
2003-09-02 07:28:17 51°21.61 3°9.36 67.5 13 62 11.8
2003-09-02 07:28:21 51°21.61 3°9.38 67.2 12.9 63 11.8
2003-09-02 07:28:27 51°21.62 3°9.41 67.4 12.7 62 12.2
2003-09-02 07:28:31 51°21.63 3°9.43 67.2 12.8 63 12.1
2003-09-02 07:28:37 51°21.64 3°9.46 66.8 12.7 61 11.6
2003-09-02 07:28:41 51°21.64 3°9.48 66.9 12.6 63 12
2003-09-02 07:28:47 51°21.65 3°9.51 67.6 12.9 63 12.2
2003-09-02 07:28:51 51°21.66 3°9.53 67.5 12.7 63 11.8
2003-09-02 07:28:57 51°21.67 3°9.56 67.8 12.5 65 11.9
2003-09-02 07:29:01 51°21.68 3°9.58 68.5 12.6 63 12.3
2003-09-02 07:29:07 51°21.69 3°9.61 67.5 12.6 63 12
2003-09-02 07:29:11 51°21.69 3°9.63 67.3 12.6 62 11.9
2003-09-02 07:29:17 51°21.7 3°9.66 67.5 12.5 63 12.2
2003-09-02 07:29:21 51°21.71 3°9.68 67.2 12.5 62 12.6
2003-09-02 07:29:27 51°21.72 3°9.71 67.3 12.6 65 12.3
2003-09-02 07:29:31 51°21.72 3°9.72 67.2 12.5 61 12.5
2003-09-02 07:29:37 51°21.73 3°9.76 67.2 12.6 65 12.4
2003-09-02 07:29:41 51°21.74 3°9.77 66.5 12.6 59 12.4
2003-09-02 07:29:47 51°21.75 3°9.8 67.2 12.6 64 13
2003-09-02 07:29:51 51°21.76 3°9.82 66.9 12.6 61 13
2003-09-02 07:29:57 51°21.77 3°9.85 67.1 12.6 64 12.8
2003-09-02 07:30:01 51°21.77 3°9.87 67.4 12.6 61 13.1
2003-09-02 07:30:07 51°21.78 3°9.9 66.7 12.6 63 12.9
2003-09-02 07:30:11 51°21.79 3°9.92 67.4 12.6 63 13.2
2003-09-02 07:30:17 51°21.8 3°9.95 66.4 12.5 61 13.1
2003-09-02 07:30:21 51°21.81 3°9.97 66.9 12.5 63 13.3
2003-09-02 07:30:27 51°21.82 3°10 67.1 12.6 63 13.6
2003-09-02 07:30:31 51°21.82 3°10.02 67.2 12.5 63 13.4
2003-09-02 07:30:37 51°21.83 3°10.05 67.2 12.5 64 13.9
2003-09-02 07:30:41 51°21.84 3°10.07 68.4 12.5 64 13.9
2003-09-02 07:30:47 51°21.85 3°10.1 67.2 12.5 64 14.3
2003-09-02 07:30:51 51°21.85 3°10.12 67.5 12.4 64 14.1
2003-09-02 07:30:57 51°21.86 3°10.15 67.1 12.4 65 14.3
2003-09-02 07:31:01 51°21.87 3°10.17 67.8 12.5 62 14.2
2003-09-02 07:31:07 51°21.88 3°10.2 66.5 12.3 65 14.5
2003-09-02 07:31:11 51°21.88 3°10.22 67.8 12.4 64 14.6
2003-09-02 07:31:17 51°21.89 3°10.25 67.1 12.3 66 14.8
2003-09-02 07:31:21 51°21.9 3°10.27 67.5 12.2 62 15
2003-09-02 07:31:27 51°21.91 3°10.3 67.6 12.3 67 15.1
2003-09-02 07:31:31 51°21.91 3°10.31 67.4 12.3 61 15.2
2003-09-02 07:31:37 51°21.92 3°10.34 66.2 12.1 64 15
2003-09-02 07:31:41 51°21.93 3°10.36 66.9 12.1 62 14.8
2003-09-02 07:31:47 51°21.94 3°10.39 66.6 12 62 15.5
2003-09-02 07:31:51 51°21.94 3°10.41 67.1 11.9 64 15.6
2003-09-02 07:31:57 51°21.95 3°10.44 66.9 11.9 63 16
2003-09-02 07:32:01 51°21.96 3°10.46 67.3 12 63 15.7
2003-09-02 07:32:07 51°21.97 3°10.48 66.7 11.8 62 15.5
2003-09-02 07:32:11 51°21.98 3°10.5 66.7 11.7 61 15.7
2003-09-02 07:32:17 51°21.99 3°10.53 65.8 11.7 61 15.6
2003-09-02 07:32:21 51°21.99 3°10.55 65.7 11.7 58 15.9
2003-09-02 07:32:27 51°22 3°10.57 64.5 11.6 59 16.1
2003-09-02 07:32:31 51°22.01 3°10.59 65.5 11.6 59 16.3
2003-09-02 07:32:37 51°22.02 3°10.62 65.4 11.6 59 16
2003-09-02 07:32:41 51°22.03 3°10.63 65.3 11.4 59 15.9
2003-09-02 07:32:47 51°22.04 3°10.66 66.4 11.3 63 16.6
2003-09-02 07:32:51 51°22.04 3°10.68 67.9 11.4 61 16.6
2003-09-02 07:32:57 51°22.05 3°10.7 66.7 11.2 61 16.9
2003-09-02 07:33:01 51°22.06 3°10.72 67.3 11.1 60 16.8
2003-09-02 07:33:07 51°22.07 3°10.74 66 11 58 17.3
2003-09-02 07:33:11 51°22.07 3°10.76 65.9 11 57 18.1
2003-09-02 07:33:17 51°22.08 3°10.79 65.9 11 58 18.6
2003-09-02 07:33:21 51°22.09 3°10.8 66.6 11 57 19.3
2003-09-02 07:33:27 51°22.1 3°10.83 66.3 11 54 19
2003-09-02 07:33:31 51°22.11 3°10.84 66 10.9 57 18.6
2003-09-02 07:33:37 51°22.12 3°10.87 66.3 11.1 54 19.3
2003-09-02 07:33:41 51°22.12 3°10.88 67.7 10.9 60 18.7
2003-09-02 07:33:47 51°22.13 3°10.91 68.4 10.9 59 18.9
2003-09-02 07:33:51 51°22.14 3°10.92 68.9 11 59 19
2003-09-02 07:33:57 51°22.15 3°10.95 69.6 11.2 60 19.2
2003-09-02 07:34:01 51°22.16 3°10.97 69.6 11.3 60 18.9
2003-09-02 07:34:07 51°22.16 3°10.99 69.7 11.2 60 18.6
2003-09-02 07:34:11 51°22.17 3°11.01 70.3 11.2 61 18.2
2003-09-02 07:34:17 51°22.18 3°11.04 69 11.5 60 17.9
2003-09-02 07:34:21 51°22.19 3°11.05 70.4 11.5 62 17.5
2003-09-02 07:34:27 51°22.2 3°11.08 69.6 11.4 60 17.3
2003-09-02 07:34:31 51°22.2 3°11.1 70.6 11.5 63 17
2003-09-02 07:34:37 51°22.21 3°11.12 69.6 11.6 61 17
2003-09-02 07:34:41 51°22.22 3°11.14 70.3 11.6 62 17.1
2003-09-02 07:34:47 51°22.23 3°11.17 70.7 11.8 65 17.1
2003-09-02 07:34:51 51°22.23 3°11.19 70.6 11.8 61 16.6
2003-09-02 07:34:57 51°22.24 3°11.22 70.9 11.7 65 16.7
2003-09-02 07:35:01 51°22.25 3°11.24 70.6 11.9 61 16.5
2003-09-02 07:35:07 51°22.26 3°11.26 70.8 11.8 69 16.4
2003-09-02 07:35:11 51°22.26 3°11.28 72.3 11.9 63 16.5
2003-09-02 07:35:17 51°22.27 3°11.31 73.3 11.6 71 16.4
2003-09-02 07:35:21 51°22.27 3°11.33 75.4 11.9 69 16.5
2003-09-02 07:35:27 51°22.28 3°11.36 74.7 11.8 68 16.4
2003-09-02 07:35:31 51°22.29 3°11.38 76.1 11.7 72 16.2
2003-09-02 07:35:37 51°22.29 3°11.41 76.7 12 69 16.4
2003-09-02 07:35:39 51°22.3 3°11.42 75.6 11.9 71 16.4
2003-09-02 07:35:47 51°22.3 3°11.46 76.3 11.9 71 16.5
2003-09-02 07:35:51 51°22.31 3°11.48 76 12 69 16.3
2003-09-02 07:35:57 51°22.31 3°11.51 76.5 12 72 16.2
2003-09-02 07:36:01 51°22.32 3°11.53 76.1 12 70 15.9
2003-09-02 07:36:07 51°22.33 3°11.56 76.5 12 70 16
2003-09-02 07:36:11 51°22.33 3°11.58 78 12.1 76 16
2003-09-02 07:36:17 51°22.34 3°11.61 77.8 11.8 72 16.3
2003-09-02 07:36:21 51°22.34 3°11.63 80.5 11.9 80 16.2
2003-09-02 07:36:27 51°22.34 3°11.66 80 12 72 16.2
2003-09-02 07:36:31 51°22.34 3°11.68 80.5 11.9 82 16.1
2003-09-02 07:36:37 51°22.35 3°11.71 81.7 11.8 75 16
2003-09-02 07:36:41 51°22.35 3°11.74 84.1 11.9 87 16
2003-09-02 07:36:47 51°22.35 3°11.77 86.5 12.1 81 16.1
2003-09-02 07:36:51 51°22.35 3°11.79 87.2 11.8 87 15.8
2003-09-02 07:36:57 51°22.35 3°11.82 89.2 12 87 16.2
2003-09-02 07:37:01 51°22.36 3°11.84 89.2 12.2 86 15.8
2003-09-02 07:37:07 51°22.36 3°11.87 86.2 11.8 82 16
2003-09-02 07:37:11 51°22.36 3°11.89 83.9 11.9 76 15.8
2003-09-02 07:37:17 51°22.37 3°11.92 78.3 11.9 71 15.7
2003-09-02 07:37:21 51°22.37 3°11.94 73.7 12 66 15.9
2003-09-02 07:37:27 51°22.38 3°11.97 71.5 12 67 15.9
2003-09-02 07:37:31 51°22.39 3°11.99 70.7 12 65 16
2003-09-02 07:37:37 51°22.4 3°12.02 69.6 12.2 66 15.9
2003-09-02 07:37:41 51°22.4 3°12.04 70.1 12.2 64 15.7
2003-09-02 07:37:47 51°22.41 3°12.07 69.4 12.1 67 15.5
2003-09-02 07:37:51 51°22.42 3°12.09 71.7 12.3 69 15.3
2003-09-02 07:37:57 51°22.42 3°12.12 73.3 12.2 69 15.2
2003-09-02 07:38:01 51°22.43 3°12.14 74.6 12.2 71 15.1
2003-09-02 07:38:07 51°22.43 3°12.17 75.9 12.4 73 15.3
2003-09-02 07:38:11 51°22.44 3°12.19 75.4 12.3 70 15.2
2003-09-02 07:38:17 51°22.44 3°12.22 76.9 12.4 74 15
2003-09-02 07:38:21 51°22.45 3°12.24 76.3 12.3 71 15
2003-09-02 07:38:27 51°22.45 3°12.28 78.4 12.5 75 14.8
2003-09-02 07:38:31 51°22.46 3°12.3 78.3 12.5 73 14.6
2003-09-02 07:38:37 51°22.46 3°12.33 78.8 12.3 76 14.8
2003-09-02 07:38:41 51°22.46 3°12.35 81.8 12.5 80 14.7
2003-09-02 07:38:47 51°22.47 3°12.38 82.2 12.3 77 14.4
2003-09-02 07:38:51 51°22.47 3°12.41 84.8 12.6 86 14.6
2003-09-02 07:38:57 51°22.47 3°12.44 85.6 12.7 76 14.5
2003-09-02 07:39:01 51°22.48 3°12.46 82.7 12.1 82 14.5
2003-09-02 07:39:07 51°22.48 3°12.49 86.3 12.7 80 14.2
2003-09-02 07:39:11 51°22.48 3°12.52 84.4 12.8 79 14.3
2003-09-02 07:39:17 51°22.48 3°12.55 83.5 12.5 78 14.2
2003-09-02 07:39:21 51°22.49 3°12.57 84.6 12.4 83 14.4
2003-09-02 07:39:27 51°22.49 3°12.6 85.6 12.7 79 14.2
2003-09-02 07:39:31 51°22.49 3°12.63 84.7 12.7 84 14.1
2003-09-02 07:39:37 51°22.5 3°12.66 85.5 12.5 78 13.9
2003-09-02 07:39:41 51°22.5 3°12.68 85.4 12.4 85 13.7
2003-09-02 07:39:47 51°22.5 3°12.71 86.2 12.6 79 13.7
2003-09-02 07:39:51 51°22.5 3°12.74 86.1 12.8 86 14
2003-09-02 07:39:57 51°22.5 3°12.77 86.4 12.6 80 13.9
2003-09-02 07:40:01 51°22.5 3°12.79 86.3 12.1 84 13.7
2003-09-02 07:40:07 51°22.51 3°12.82 87.6 12.6 82 13.5
2003-09-02 07:40:11 51°22.51 3°12.85 86 12.9 81 13.7
2003-09-02 07:40:17 51°22.51 3°12.88 85.4 12.3 83 13.5
2003-09-02 07:40:21 51°22.51 3°12.9 86.8 12.1 82 13.6
2003-09-02 07:40:27 51°22.52 3°12.93 86.3 12.5 84 13.4
2003-09-02 07:40:31 51°22.52 3°12.96 85.7 12.5 80 13.4
2003-09-02 07:40:37 51°22.52 3°12.99 86 12.4 84 13.5
2003-09-02 07:40:41 51°22.52 3°13.01 85.5 12.5 78 13.4
2003-09-02 07:40:47 51°22.53 3°13.04 82.7 12.2 78 13.3
2003-09-02 07:40:51 51°22.53 3°13.06 83.2 12.3 78 13.1
2003-09-02 07:40:57 51°22.54 3°13.1 83.4 12.8 76 13.3
2003-09-02 07:41:01 51°22.54 3°13.12 80.9 12.5 74 13.1
2003-09-02 07:41:07 51°22.54 3°13.15 81.6 12.1 78 12.9
2003-09-02 07:41:11 51°22.55 3°13.17 83.7 12.3 76 12.6
2003-09-02 07:41:17 51°22.55 3°13.2 83 12.8 77 12.9
2003-09-02 07:41:21 51°22.56 3°13.22 82.1 12.9 76 13
2003-09-02 07:41:27 51°22.56 3°13.26 81.8 12.1 80 12.7
2003-09-02 07:41:31 51°22.56 3°13.28 84.9 12.1 79 12.5
2003-09-02 07:41:37 51°22.57 3°13.31 84.4 12.4 80 12.4
2003-09-02 07:41:41 51°22.57 3°13.33 85.4 12.9 81 12.4
2003-09-02 07:41:47 51°22.57 3°13.37 83.1 12.6 75 12.5
2003-09-02 07:41:51 51°22.58 3°13.39 81.7 12 78 12.3
2003-09-02 07:41:57 51°22.58 3°13.42 83.8 12.3 79 12.1
2003-09-02 07:42:01 51°22.58 3°13.44 83.8 12.7 76 12
2003-09-02 07:42:07 51°22.59 3°13.47 82.7 12.8 77 12.2
2003-09-02 07:42:11 51°22.59 3°13.49 81.8 12.4 75 12
2003-09-02 07:42:17 51°22.6 3°13.53 82.3 12.2 77 11.7
2003-09-02 07:42:21 51°22.6 3°13.55 82.2 12.3 75 11.7
2003-09-02 07:42:27 51°22.6 3°13.58 83.9 12.6 77 11.8
2003-09-02 07:42:31 51°22.61 3°13.6 82.1 12.7 74 11.6
2003-09-02 07:42:37 51°22.61 3°13.63 81.7 12.3 77 11.6
2003-09-02 07:42:41 51°22.62 3°13.65 81.7 12 75 11.4
2003-09-02 07:42:47 51°22.62 3°13.69 83.2 12.5 79 11.3
2003-09-02 07:42:51 51°22.62 3°13.71 83.1 12.8 76 11.4
2003-09-02 07:42:57 51°22.63 3°13.74 82.4 12.3 79 11.2
2003-09-02 07:43:01 51°22.63 3°13.76 82.5 12 76 11.3
2003-09-02 07:43:07 51°22.64 3°13.79 83.5 12.2 78 11
2003-09-02 07:43:11 51°22.64 3°13.81 84.1 12.4 79 11
2003-09-02 07:43:17 51°22.64 3°13.85 83.4 12.5 74 11.1
2003-09-02 07:43:21 51°22.65 3°13.87 82.7 12.4 79 10.8
2003-09-02 07:43:27 51°22.65 3°13.9 81.2 12.5 72 10.7
2003-09-02 07:43:31 51°22.66 3°13.92 81 12 77 10.8
2003-09-02 07:43:37 51°22.66 3°13.95 84.1 11.9 76 10.6
2003-09-02 07:43:41 51°22.66 3°13.97 84 11.9 79 10.5
2003-09-02 07:43:47 51°22.67 3°14 84.3 12.5 75 10.6
2003-09-02 07:43:51 51°22.67 3°14.03 82 12.4 76 10.5
2003-09-02 07:43:57 51°22.68 3°14.06 82.1 12 77 10.3
2003-09-02 07:44:01 51°22.68 3°14.08 81.8 11.8 72 10.3
2003-09-02 07:44:07 51°22.68 3°14.11 82.6 12.1 77 10.1
2003-09-02 07:44:11 51°22.69 3°14.13 81.5 12.2 73 10.2
2003-09-02 07:44:17 51°22.69 3°14.16 82.9 12.3 77 9.9
2003-09-02 07:44:21 51°22.7 3°14.18 81 12.3 71 9.9
2003-09-02 07:44:27 51°22.7 3°14.21 81.1 12.3 73 10.1
2003-09-02 07:44:31 51°22.71 3°14.23 79.3 12.3 71 10.1
2003-09-02 07:44:37 51°22.71 3°14.26 79.1 11.7 74 10
2003-09-02 07:44:41 51°22.71 3°14.28 82.1 11.7 78 9.9
2003-09-02 07:44:47 51°22.72 3°14.32 83.1 12.4 76 9.7
2003-09-02 07:44:51 51°22.72 3°14.34 83.9 12.6 79 9.8
2003-09-02 07:44:57 51°22.73 3°14.37 83.1 12.2 75 9.6
2003-09-02 07:45:01 51°22.73 3°14.39 83.1 12 78 9.6
2003-09-02 07:45:07 51°22.74 3°14.42 82.1 11.8 75 9.5
2003-09-02 07:45:11 51°22.74 3°14.44 82.2 11.7 76 9.4
2003-09-02 07:45:17 51°22.74 3°14.47 81.1 11.6 72 9.6
2003-09-02 07:45:21 51°22.75 3°14.49 79.8 11.3 74 9.6
2003-09-02 07:45:27 51°22.75 3°14.51 78.6 10.3 72 9.6
2003-09-02 07:45:31 51°22.76 3°14.53 78.3 9.7 71 9.7
2003-09-02 07:45:37 51°22.76 3°14.55 77.5 9 70 9.7
2003-09-02 07:45:41 51°22.77 3°14.57 76.1 8.5 66 10
2003-09-02 07:45:47 51°22.77 3°14.59 75.8 7.9 68 10.1
2003-09-02 07:45:51 51°22.77 3°14.6 74 7.5 65 10
2003-09-02 07:45:57 51°22.78 3°14.61 72.1 6.9 63 9.8
2003-09-02 07:46:01 51°22.78 3°14.62 71.6 6.6 60 9.8
2003-09-02 07:46:07 51°22.79 3°14.64 70.1 6.1 58 9.9
2003-09-02 07:46:11 51°22.79 3°14.65 68.4 5.8 59 9.6
2003-09-02 07:46:17 51°22.8 3°14.66 68.2 5.6 57 9.8
2003-09-02 07:46:21 51°22.8 3°14.67 67.3 5.3 54 9.8
2003-09-02 07:46:27 51°22.8 3°14.68 66.1 5 59 9.7
2003-09-02 07:46:31 51°22.81 3°14.69 65.6 4.9 49 9.8
2003-09-02 07:46:37 51°22.81 3°14.7 66.6 4.5 58 9.8
2003-09-02 07:46:41 51°22.82 3°14.7 68.2 4.3 54 9.7
2003-09-02 07:46:47 51°22.82 3°14.71 70.6 3.9 63 9.9
2003-09-02 07:46:51 51°22.82 3°14.72 74 3.8 63 9.7
2003-09-02 07:46:57 51°22.82 3°14.73 77.1 3.5 71 9.7
2003-09-02 07:47:01 51°22.82 3°14.73 81.1 3.5 69 10
2003-09-02 07:47:07 51°22.82 3°14.74 84.3 3 85 9.7
2003-09-02 07:47:11 51°22.83 3°14.74 87.3 3 78 9.8
2003-09-02 07:47:17 51°22.83 3°14.75 90 2.8 83 9.9
2003-09-02 07:47:21 51°22.83 3°14.76 90.8 2.7 84 9.8
2003-09-02 07:47:27 51°22.83 3°14.76 90.9 2.6 87 9.8
2003-09-02 07:47:31 51°22.83 3°14.77 91 2.5 79 9.9
2003-09-02 07:47:37 51°22.83 3°14.77 89.7 2.4 87 9.7
2003-09-02 07:47:41 51°22.83 3°14.78 88.2 2.3 79 9.7
2003-09-02 07:47:47 51°22.83 3°14.78 87.6 2.2 72 9.6
2003-09-02 07:47:51 51°22.83 3°14.79 86.1 2.1 82 9.7
2003-09-02 07:47:57 51°22.83 3°14.79 85.2 2.1 70 9.5
2003-09-02 07:48:01 51°22.83 3°14.8 83.4 1.9 75 9.8
2003-09-02 07:48:07 51°22.83 3°14.8 82 1.9 63 9.8
2003-09-02 07:48:11 51°22.83 3°14.8 81 1.7 74 9.8
2003-09-02 07:48:17 51°22.83 3°14.81 79.5 1.8 53 9.7
2003-09-02 07:48:21 51°22.83 3°14.81 78 1.7 75 9.6
2003-09-02 07:48:27 51°22.84 3°14.81 76.9 1.7 46 9.9
2003-09-02 07:48:31 51°22.84 3°14.82 75.7 1.5 77 9.7
2003-09-02 07:48:37 51°22.84 3°14.82 73.9 1.5 53 9.7
2003-09-02 07:48:41 51°22.84 3°14.82 72.8 1.4 56 9.7
2003-09-02 07:48:47 51°22.84 3°14.82 71.4 0.9 59 9.7
2003-09-02 07:48:51 51°22.84 3°14.82 71 1.1 24 9.7
2003-09-02 07:48:57 51°22.84 3°14.83 71.5 0.9 30 9.7
2003-09-02 07:49:01 51°22.84 3°14.83 71.3 0.8 48 9.6
2003-09-02 07:49:07 51°22.84 3°14.83 71.4 0.8 32 9.6
2003-09-02 07:49:11 51°22.84 3°14.83 71.9 0.8 32 9.9
2003-09-02 07:49:17 51°22.85 3°14.83 71.3 0.8 34 9.6
2003-09-02 07:49:21 51°22.85 3°14.83 71 0.7 38 9.5
2003-09-02 07:49:27 51°22.85 3°14.83 71.3 1.1 6 9.8
2003-09-02 07:49:31 51°22.85 3°14.83 71 0.5 77 9.7
2003-09-02 07:49:37 51°22.85 3°14.83 70.9 0.8 17 9.9
2003-09-02 07:49:41 51°22.85 3°14.83 71.1 0.5 38 9.8
2003-09-02 07:49:47 51°22.85 3°14.83 70.4 0.5 51 9.7
2003-09-02 07:49:51 51°22.85 3°14.83 70.8 0.8 13 9.8
2003-09-02 07:49:57 51°22.85 3°14.84 71.2 0.5 47 9.6
2003-09-02 07:50:01 51°22.85 3°14.84 70.6 0.8 6 9.7
2003-09-02 07:50:07 51°22.85 3°14.84 70.9 0.6 20 9.5
2003-09-02 07:50:11 51°22.85 3°14.84 70.8 0.8 3 9.5
2003-09-02 07:50:17 51°22.86 3°14.84 71.4 0.9 359 9.8
2003-09-02 07:50:21 51°22.86 3°14.84 70.4 0.5 14 9.7
2003-09-02 07:50:27 51°22.86 3°14.84 70.7 0.8 3 9.6
2003-09-02 07:50:31 51°22.86 3°14.84 70.8 0.5 20 9.7
2003-09-02 07:50:37 51°22.86 3°14.84 70.9 0.8   9.8
2003-09-02 07:50:41 51°22.86 3°14.84 71.1 0.4 16 9.7
2003-09-02 07:50:47 51°22.86 3°14.84 70.4 0.7 357 9.7
2003-09-02 07:50:51 51°22.86 3°14.84 70.5 0.3 19 9.8
2003-09-02 07:50:57 51°22.86 3°14.84 71 0.6   9.8
2003-09-02 07:51:01 51°22.86 3°14.84 71 0.4 4 9.8
2003-09-02 07:51:07 51°22.86 3°14.84 70.7 0.6 352 9.8
2003-09-02 07:51:11 51°22.86 3°14.84 70.5 0.3 7 9.8
2003-09-02 07:51:17 51°22.87 3°14.84 70.8 0.7 352 9.8
2003-09-02 07:51:21 51°22.87 3°14.84 70.6 0.3 13 9.6
2003-09-02 07:51:27 51°22.87 3°14.84 70.9 0.6 343 9.7
2003-09-02 07:51:31 51°22.87 3°14.84 71.1 0.3 358 9.6
2003-09-02 07:51:37 51°22.87 3°14.84 70.5 0.4 342 9.5
2003-09-02 07:51:41 51°22.87 3°14.84 71.4 0.6 353 9.6
2003-09-02 07:51:47 51°22.87 3°14.84 71.2 0.4 343 9.7
2003-09-02 07:51:51 51°22.87 3°14.84 71.4 0.3 351 9.5
2003-09-02 07:51:57 51°22.87 3°14.84 71.5 0.5 342 9.5